createdAt,value
2019-04-06T00:01:32.133Z,7.70
2019-04-06T00:04:02.541Z,7.64
2019-04-06T00:06:32.978Z,7.56
2019-04-06T00:09:04.996Z,7.55
2019-04-06T00:11:35.770Z,7.56
2019-04-06T00:14:06.629Z,7.60
2019-04-06T00:16:37.127Z,7.60
2019-04-06T00:19:07.564Z,7.60
2019-04-06T00:21:37.997Z,7.59
2019-04-06T00:24:08.507Z,7.59
2019-04-06T00:26:38.996Z,7.59
2019-04-06T00:29:09.720Z,7.60
2019-04-06T00:31:57.761Z,7.61
2019-04-06T00:34:28.280Z,7.54
2019-04-06T00:36:58.741Z,7.56
2019-04-06T00:39:29.553Z,7.46
2019-04-06T00:41:59.993Z,7.45
2019-04-06T00:44:30.821Z,7.40
2019-04-06T00:47:01.324Z,7.47
2019-04-06T00:49:35.781Z,7.39
2019-04-06T00:52:07.301Z,7.37
2019-04-06T00:54:37.746Z,7.41
2019-04-06T00:57:08.597Z,7.37
2019-04-06T00:59:39.967Z,7.35
2019-04-06T01:02:10.517Z,7.36
2019-04-06T01:04:40.979Z,7.34
2019-04-06T01:07:11.460Z,7.26
2019-04-06T01:09:41.908Z,7.29
2019-04-06T01:12:12.438Z,7.20
2019-04-06T01:14:43.298Z,7.21
2019-04-06T01:17:13.748Z,7.08
2019-04-06T01:19:44.398Z,7.09
2019-04-06T01:22:15.347Z,7.04
2019-04-06T01:24:45.823Z,7.03
2019-04-06T01:27:16.625Z,7.04
2019-04-06T01:29:47.945Z,7.03
2019-04-06T01:32:18.447Z,7.02
2019-04-06T01:34:48.916Z,6.96
2019-04-06T01:37:19.422Z,6.96
2019-04-06T01:39:49.870Z,6.98
2019-04-06T01:42:20.482Z,6.98
2019-04-06T01:44:51.340Z,6.98
2019-04-06T01:47:21.991Z,6.96
2019-04-06T01:49:52.609Z,6.69
2019-04-06T01:52:23.167Z,6.61
2019-04-06T01:54:54.113Z,6.50
2019-04-06T01:57:24.605Z,6.41
2019-04-06T01:59:55.151Z,6.33
2019-04-06T02:02:34.001Z,6.26
2019-04-06T02:05:04.706Z,6.24
2019-04-06T02:07:35.239Z,6.39
2019-04-06T02:10:07.408Z,6.38
2019-04-06T02:12:37.855Z,6.41
2019-04-06T02:15:08.501Z,6.47
2019-04-06T02:17:38.993Z,6.54
2019-04-06T02:20:09.836Z,6.59
2019-04-06T02:22:40.374Z,6.51
2019-04-06T02:25:11.241Z,6.49
2019-04-06T02:27:42.081Z,6.58
2019-04-06T02:30:19.865Z,6.68
2019-04-06T02:33:07.969Z,6.75
2019-04-06T02:35:49.750Z,6.69
2019-04-06T02:38:57.414Z,6.55
2019-04-06T02:42:02.152Z,6.38
2019-04-06T02:44:32.648Z,6.33
2019-04-06T02:47:03.088Z,6.28
2019-04-06T02:49:33.860Z,6.32
2019-04-06T02:52:04.307Z,6.27
2019-04-06T02:54:35.676Z,6.24
2019-04-06T02:57:06.168Z,6.25
2019-04-06T02:59:37.446Z,6.28
2019-04-06T03:02:07.888Z,6.31
2019-04-06T03:04:38.390Z,6.39
2019-04-06T03:07:08.834Z,6.44
2019-04-06T03:09:39.690Z,6.44
2019-04-06T03:12:10.190Z,6.44
2019-04-06T03:14:44.001Z,6.36
2019-04-06T03:17:12.767Z,6.35
2019-04-06T03:19:43.346Z,6.36
2019-04-06T03:22:13.782Z,6.38
2019-04-06T03:24:44.218Z,6.33
2019-04-06T03:27:14.693Z,6.49
2019-04-06T03:29:56.508Z,6.38
2019-04-06T03:32:17.272Z,6.32
2019-04-06T03:34:47.765Z,6.28
2019-04-06T03:37:18.287Z,6.17
2019-04-06T03:39:48.735Z,6.12
2019-04-06T03:42:19.212Z,6.10
2019-04-06T03:44:49.734Z,6.19
2019-04-06T03:47:20.200Z,6.22
2019-04-06T03:49:50.729Z,6.21
2019-04-06T03:52:21.181Z,6.22
2019-04-06T03:54:51.670Z,6.21
2019-04-06T03:57:22.557Z,6.20
2019-04-06T03:59:53.039Z,6.16
2019-04-06T04:02:23.463Z,6.15
2019-04-06T04:04:54.150Z,6.16
2019-04-06T04:07:24.613Z,6.14
2019-04-06T04:09:55.424Z,6.01
2019-04-06T04:12:26.322Z,5.88
2019-04-06T04:14:56.834Z,5.80
2019-04-06T04:17:27.277Z,5.81
2019-04-06T04:19:57.777Z,5.81
2019-04-06T04:22:28.673Z,5.79
2019-04-06T04:24:59.398Z,5.81
2019-04-06T04:27:30.821Z,5.84
2019-04-06T04:30:01.571Z,5.91
2019-04-06T04:32:32.435Z,5.93
2019-04-06T04:35:03.000Z,5.81
2019-04-06T04:37:33.440Z,5.89
2019-04-06T04:40:04.099Z,5.81
2019-04-06T04:42:34.901Z,5.74
2019-04-06T04:45:06.136Z,5.69
2019-04-06T04:47:37.030Z,5.64
2019-04-06T04:50:08.365Z,5.65
2019-04-06T04:52:38.859Z,5.58
2019-04-06T04:55:09.509Z,5.70
2019-04-06T04:57:41.976Z,5.72
2019-04-06T05:00:13.014Z,5.72
2019-04-06T05:02:43.938Z,5.82
2019-04-06T05:05:14.906Z,5.86
2019-04-06T05:07:45.358Z,5.90
2019-04-06T05:10:16.046Z,5.91
2019-04-06T05:12:46.546Z,5.92
2019-04-06T05:15:23.742Z,5.95
2019-04-06T05:17:54.612Z,5.99
2019-04-06T05:20:25.364Z,5.97
2019-04-06T05:22:56.186Z,5.90
2019-04-06T05:25:26.675Z,5.92
2019-04-06T05:27:57.135Z,5.84
2019-04-06T05:30:27.607Z,5.83
2019-04-06T05:32:58.381Z,5.87
2019-04-06T05:35:28.821Z,5.84
2019-04-06T05:37:59.525Z,5.84
2019-04-06T05:40:30.338Z,5.86
2019-04-06T05:43:00.833Z,5.94
2019-04-06T05:45:31.349Z,6.02
2019-04-06T05:48:03.762Z,6.07
2019-04-06T05:50:34.210Z,6.13
2019-04-06T05:53:04.659Z,6.18
2019-04-06T05:55:36.269Z,6.24
2019-04-06T05:58:09.864Z,6.20
2019-04-06T06:00:40.601Z,6.26
2019-04-06T06:03:11.523Z,6.26
2019-04-06T06:05:42.302Z,6.21
2019-04-06T06:08:13.537Z,6.23
2019-04-06T06:10:45.026Z,6.22
2019-04-06T06:13:15.850Z,6.24
2019-04-06T06:15:46.303Z,6.25
2019-04-06T06:18:25.835Z,6.31
2019-04-06T06:20:51.056Z,6.31
2019-04-06T06:23:21.472Z,6.44
2019-04-06T06:25:52.150Z,6.49
2019-04-06T06:28:22.946Z,6.49
2019-04-06T06:30:54.867Z,6.47
2019-04-06T06:33:25.455Z,6.54
2019-04-06T06:35:56.341Z,6.45
2019-04-06T06:38:26.789Z,6.44
2019-04-06T06:40:57.499Z,6.63
2019-04-06T06:43:28.092Z,6.53
2019-04-06T06:45:58.571Z,6.57
2019-04-06T06:48:29.321Z,6.63
2019-04-06T06:51:00.071Z,6.74
2019-04-06T06:53:30.914Z,6.75
2019-04-06T06:56:01.761Z,6.87
2019-04-06T06:58:32.395Z,7.06
2019-04-06T07:01:03.605Z,7.12
2019-04-06T07:03:34.187Z,7.24
2019-04-06T07:06:06.408Z,7.26
2019-04-06T07:08:37.713Z,7.39
2019-04-06T07:11:09.043Z,7.37
2019-04-06T07:13:39.540Z,7.41
2019-04-06T07:16:10.305Z,7.48
2019-04-06T07:18:41.839Z,7.54
2019-04-06T07:21:12.596Z,7.56
2019-04-06T07:23:43.101Z,7.64
2019-04-06T07:26:13.636Z,7.70
2019-04-06T07:28:44.401Z,7.78
2019-04-06T07:31:15.211Z,7.94
2019-04-06T07:33:47.686Z,8.08
2019-04-06T07:36:18.130Z,8.08
2019-04-06T07:38:48.568Z,8.06
2019-04-06T07:41:20.650Z,8.12
2019-04-06T07:43:51.331Z,8.29
2019-04-06T07:46:21.863Z,8.34
2019-04-06T07:48:52.312Z,8.42
2019-04-06T07:51:22.813Z,8.51
2019-04-06T07:53:53.256Z,8.56
2019-04-06T07:56:25.165Z,8.60
2019-04-06T07:58:56.116Z,8.68
2019-04-06T08:01:26.946Z,8.86
2019-04-06T08:03:58.077Z,8.90
2019-04-06T08:06:28.724Z,8.85
2019-04-06T08:08:59.161Z,8.89
2019-04-06T08:11:29.655Z,9.04
2019-04-06T08:14:01.932Z,9.16
2019-04-06T08:16:32.729Z,9.06
2019-04-06T08:19:04.293Z,9.18
2019-04-06T08:21:35.088Z,9.26
2019-04-06T08:24:06.006Z,9.40
2019-04-06T08:26:36.502Z,9.31
2019-04-06T08:29:06.962Z,9.36
2019-04-06T08:31:38.344Z,9.47
2019-04-06T08:34:08.846Z,9.50
2019-04-06T08:36:39.290Z,9.62
2019-04-06T08:39:10.389Z,9.66
2019-04-06T08:41:42.213Z,9.76
2019-04-06T08:44:13.334Z,9.83
2019-04-06T08:46:43.741Z,9.80
2019-04-06T08:49:14.230Z,9.94
2019-04-06T08:51:44.757Z,10.09
2019-04-06T08:54:15.210Z,10.54
2019-04-06T08:56:45.713Z,10.70
2019-04-06T08:59:16.557Z,10.84
2019-04-06T09:01:47.008Z,11.05
2019-04-06T09:04:17.609Z,11.40
2019-04-06T09:06:48.224Z,11.62
2019-04-06T09:09:20.476Z,11.56
2019-04-06T09:11:51.129Z,11.57
2019-04-06T09:14:21.920Z,11.88
2019-04-06T09:16:52.341Z,12.18
2019-04-06T09:19:22.833Z,12.45
2019-04-06T09:21:53.302Z,12.55
2019-04-06T09:24:23.734Z,12.69
2019-04-06T09:26:54.330Z,12.85
2019-04-06T09:29:25.045Z,13.07
2019-04-06T09:31:56.634Z,13.18
2019-04-06T09:34:30.677Z,13.42
2019-04-06T09:37:00.747Z,13.37
2019-04-06T09:39:31.529Z,13.54
2019-04-06T09:42:02.709Z,13.63
2019-04-06T09:45:01.532Z,13.91
2019-04-06T09:47:49.895Z,14.04
2019-04-06T09:50:32.095Z,14.26
2019-04-06T09:53:41.732Z,14.44
2019-04-06T09:56:28.580Z,14.50
2019-04-06T09:59:35.271Z,14.70
2019-04-06T10:02:19.289Z,14.81
2019-04-06T10:05:08.665Z,14.84
2019-04-06T10:08:04.360Z,14.95
2019-04-06T10:10:48.409Z,15.02
2019-04-06T10:13:39.059Z,15.09
2019-04-06T10:16:28.589Z,15.33
2019-04-06T10:19:27.318Z,15.33
2019-04-06T10:22:19.614Z,15.54
2019-04-06T10:25:15.460Z,15.48
2019-04-06T10:28:14.799Z,15.42
2019-04-06T10:31:04.137Z,15.52
2019-04-06T10:33:50.726Z,15.53
2019-04-06T10:36:41.582Z,15.36
2019-04-06T10:39:27.826Z,15.50
2019-04-06T10:42:07.000Z,15.90
2019-04-06T10:44:59.882Z,16.08
2019-04-06T10:47:40.414Z,16.27
2019-04-06T10:50:42.463Z,16.31
2019-04-06T10:53:24.891Z,16.59
2019-04-06T10:56:24.263Z,16.61
2019-04-06T10:59:19.789Z,16.66
2019-04-06T11:02:21.946Z,16.77
2019-04-06T11:04:57.929Z,17.06
2019-04-06T11:07:46.059Z,17.15
2019-04-06T11:10:45.187Z,17.14
2019-04-06T11:13:32.430Z,17.09
2019-04-06T11:16:19.196Z,17.12
2019-04-06T11:19:03.895Z,17.23
2019-04-06T11:21:52.640Z,17.29
2019-04-06T11:24:41.238Z,17.50
2019-04-06T11:27:42.875Z,17.57
2019-04-06T11:30:32.923Z,17.80
2019-04-06T11:33:22.024Z,18.00
2019-04-06T11:36:23.619Z,18.22
2019-04-06T11:39:08.919Z,18.45
2019-04-06T11:42:01.190Z,18.75
2019-04-06T11:44:50.675Z,18.68
2019-04-06T11:47:26.822Z,18.72
2019-04-06T11:50:16.196Z,18.61
2019-04-06T11:53:04.340Z,18.55
2019-04-06T11:56:00.494Z,18.34
2019-04-06T11:58:59.041Z,18.23
2019-04-06T12:02:06.932Z,18.28
2019-04-06T12:04:53.781Z,18.28
2019-04-06T12:07:31.743Z,18.53
2019-04-06T12:10:11.630Z,18.53
2019-04-06T12:12:56.248Z,18.71
2019-04-06T12:15:46.847Z,18.83
2019-04-06T12:18:37.650Z,18.95
2019-04-06T12:21:13.901Z,19.17
2019-04-06T12:23:56.065Z,19.24
2019-04-06T12:26:45.617Z,19.26
2019-04-06T12:29:27.850Z,19.47
2019-04-06T12:32:35.531Z,19.49
2019-04-06T12:35:24.649Z,19.63
2019-04-06T12:38:05.605Z,19.88
2019-04-06T12:41:05.774Z,19.91
2019-04-06T12:43:57.749Z,19.89
2019-04-06T12:46:38.552Z,20.03
2019-04-06T12:49:30.274Z,20.16
2019-04-06T12:52:24.350Z,20.23
2019-04-06T12:55:09.541Z,20.34
2019-04-06T12:57:59.311Z,20.39
2019-04-06T13:00:54.357Z,20.34
2019-04-06T13:03:42.693Z,20.35
2019-04-06T13:06:31.386Z,20.32
2019-04-06T13:09:19.150Z,20.31
2019-04-06T13:12:09.032Z,20.41
2019-04-06T13:14:48.417Z,20.64
2019-04-06T13:17:32.347Z,20.71
2019-04-06T13:20:14.625Z,20.77
2019-04-06T13:23:08.224Z,20.76
2019-04-06T13:26:12.926Z,20.77
2019-04-06T13:28:52.473Z,20.93
2019-04-06T13:31:55.127Z,21.18
2019-04-06T13:34:53.763Z,21.33
2019-04-06T13:37:55.954Z,21.43
2019-04-06T13:40:55.112Z,21.45
2019-04-06T13:43:47.358Z,21.60
2019-04-06T13:46:35.549Z,21.68
2019-04-06T13:49:23.809Z,21.71
2019-04-06T13:52:07.493Z,21.72
2019-04-06T13:54:52.902Z,21.50
2019-04-06T13:57:47.800Z,21.41
2019-04-06T14:00:40.278Z,21.28
2019-04-06T14:03:28.946Z,21.19
2019-04-06T14:06:18.132Z,21.21
2019-04-06T14:09:01.295Z,21.33
2019-04-06T14:11:47.301Z,21.50
2019-04-06T14:14:29.195Z,21.50
2019-04-06T14:17:14.300Z,21.52
2019-04-06T14:20:06.509Z,21.57
2019-04-06T14:22:58.715Z,21.51
2019-04-06T14:25:47.049Z,21.29
2019-04-06T14:28:36.859Z,21.02
2019-04-06T14:31:35.751Z,20.77
2019-04-06T14:34:34.414Z,20.54
2019-04-06T14:37:19.814Z,20.42
2019-04-06T14:40:09.346Z,20.26
2019-04-06T14:43:10.065Z,20.17
2019-04-06T14:45:58.190Z,20.10
2019-04-06T14:48:45.853Z,19.85
2019-04-06T14:51:28.418Z,19.74
2019-04-06T14:54:21.464Z,19.62
2019-04-06T14:57:16.865Z,19.59
2019-04-06T15:00:13.310Z,19.60
2019-04-06T15:02:54.766Z,19.56
2019-04-06T15:05:43.001Z,19.49
2019-04-06T15:08:20.709Z,19.46
2019-04-06T15:10:58.436Z,19.44
2019-04-06T15:13:44.379Z,19.45
2019-04-06T15:16:20.768Z,19.45
2019-04-06T15:19:25.282Z,19.44
2019-04-06T15:22:14.844Z,19.49
2019-04-06T15:25:04.754Z,19.47
2019-04-06T15:28:00.718Z,19.48
2019-04-06T15:31:03.352Z,19.44
2019-04-06T15:33:52.704Z,19.45
2019-04-06T15:36:43.886Z,19.39
2019-04-06T15:39:39.368Z,19.32
2019-04-06T15:42:34.659Z,19.22
2019-04-06T15:45:22.351Z,19.17
2019-04-06T15:48:10.994Z,19.14
2019-04-06T15:50:53.044Z,19.06
2019-04-06T15:53:41.108Z,19.01
2019-04-06T15:56:29.834Z,18.92
2019-04-06T15:59:29.261Z,18.87
2019-04-06T16:02:19.281Z,18.86
2019-04-06T16:05:11.915Z,18.70
2019-04-06T16:08:07.690Z,18.69
2019-04-06T16:11:03.271Z,18.65
2019-04-06T16:13:58.514Z,18.57
2019-04-06T16:16:47.872Z,18.52
2019-04-06T16:19:46.578Z,18.52
2019-04-06T16:22:42.338Z,18.51
2019-04-06T16:25:25.122Z,18.42
2019-04-06T16:28:07.998Z,18.39
2019-04-06T16:31:07.135Z,18.42
2019-04-06T16:33:46.260Z,18.34
2019-04-06T16:36:26.085Z,18.34
2019-04-06T16:39:14.654Z,18.26
2019-04-06T16:42:07.956Z,18.27
2019-04-06T16:44:56.435Z,18.28
2019-04-06T16:47:38.066Z,18.24
2019-04-06T16:50:26.494Z,18.19
2019-04-06T16:53:14.553Z,18.15
2019-04-06T16:55:50.395Z,18.10
2019-04-06T16:58:31.039Z,18.10
2019-04-06T17:01:19.904Z,18.11
2019-04-06T17:04:18.398Z,17.96
2019-04-06T17:07:11.039Z,17.90
2019-04-06T17:10:03.323Z,17.89
2019-04-06T17:12:59.414Z,17.80
2019-04-06T17:15:44.578Z,17.82
2019-04-06T17:18:40.080Z,17.83
2019-04-06T17:21:29.491Z,17.68
2019-04-06T17:24:28.638Z,17.71
2019-04-06T17:27:21.183Z,17.71
2019-04-06T17:30:06.530Z,17.61
2019-04-06T17:33:00.417Z,17.49
2019-04-06T17:35:59.355Z,17.40
2019-04-06T17:38:45.558Z,17.41
2019-04-06T17:41:28.789Z,17.39
2019-04-06T17:44:27.713Z,17.37
2019-04-06T17:47:08.738Z,17.37
2019-04-06T17:50:13.398Z,17.26
2019-04-06T17:53:01.220Z,17.27
2019-04-06T17:55:41.570Z,17.17
2019-04-06T17:58:41.884Z,17.08
2019-04-06T18:01:30.831Z,17.01
2019-04-06T18:04:28.217Z,16.97
2019-04-06T18:07:09.347Z,16.94
2019-04-06T18:10:05.006Z,16.87
2019-04-06T18:12:54.199Z,16.77
2019-04-06T18:15:25.009Z,16.73
2019-04-06T18:17:56.400Z,16.67
2019-04-06T18:20:26.898Z,16.66
2019-04-06T18:22:58.062Z,16.65
2019-04-06T18:25:28.699Z,16.57
2019-04-06T18:27:59.203Z,16.51
2019-04-06T18:30:29.661Z,16.42
2019-04-06T18:33:06.595Z,16.32
2019-04-06T18:35:37.334Z,16.22
2019-04-06T18:38:25.426Z,16.16
2019-04-06T18:40:55.940Z,16.08
2019-04-06T18:43:26.973Z,15.95
2019-04-06T18:45:57.628Z,15.91
2019-04-06T18:48:28.486Z,15.85
2019-04-06T18:50:59.312Z,15.77
2019-04-06T18:53:31.012Z,15.71
2019-04-06T18:56:01.473Z,15.66
2019-04-06T18:58:32.539Z,15.60
2019-04-06T19:01:03.702Z,15.56
2019-04-06T19:03:35.603Z,15.45
2019-04-06T19:06:06.485Z,15.39
2019-04-06T19:08:38.025Z,15.26
2019-04-06T19:11:09.672Z,15.04
2019-04-06T19:13:41.822Z,14.98
2019-04-06T19:16:12.956Z,14.97
2019-04-06T19:18:43.547Z,14.95
2019-04-06T19:21:14.498Z,14.95
2019-04-06T19:23:45.067Z,14.93
2019-04-06T19:26:15.537Z,14.90
2019-04-06T19:28:48.015Z,14.87
2019-04-06T19:31:19.366Z,14.89
2019-04-06T19:33:52.194Z,14.76
2019-04-06T19:36:23.126Z,14.69
2019-04-06T19:38:54.096Z,14.59
2019-04-06T19:41:26.074Z,14.55
2019-04-06T19:43:56.896Z,14.56
2019-04-06T19:46:28.352Z,14.53
2019-04-06T19:48:59.719Z,14.50
2019-04-06T19:51:30.903Z,14.43
2019-04-06T19:54:04.439Z,14.38
2019-04-06T19:56:34.666Z,14.30
2019-04-06T19:59:06.207Z,14.29
2019-04-06T20:01:36.715Z,14.23
2019-04-06T20:04:08.079Z,14.14
2019-04-06T20:06:39.766Z,14.03
2019-04-06T20:09:10.812Z,14.01
2019-04-06T20:11:41.336Z,13.95
2019-04-06T20:14:14.540Z,13.95
2019-04-06T20:16:45.154Z,13.96
2019-04-06T20:19:16.632Z,14.01
2019-04-06T20:21:47.579Z,14.00
2019-04-06T20:24:18.281Z,14.00
2019-04-06T20:26:49.513Z,13.90
2019-04-06T20:29:20.489Z,14.09
2019-04-06T20:31:51.026Z,14.09
2019-04-06T20:34:22.137Z,14.06
2019-04-06T20:36:54.693Z,14.07
2019-04-06T20:39:25.230Z,14.11
2019-04-06T20:41:57.363Z,14.22
2019-04-06T20:44:28.476Z,14.28
2019-04-06T20:46:59.717Z,14.30
2019-04-06T20:49:30.213Z,14.21
2019-04-06T20:52:02.821Z,14.22
2019-04-06T20:54:33.657Z,14.26
2019-04-06T20:57:04.748Z,14.22
2019-04-06T20:59:35.896Z,14.30
2019-04-06T21:02:06.630Z,14.27
2019-04-06T21:04:37.323Z,14.21
2019-04-06T21:07:08.326Z,14.19
2019-04-06T21:09:39.311Z,14.21
2019-04-06T21:12:10.572Z,14.10
2019-04-06T21:14:41.529Z,14.06
2019-04-06T21:17:12.245Z,13.98
2019-04-06T21:19:42.975Z,13.94
2019-04-06T21:22:13.811Z,13.93
2019-04-06T21:24:44.311Z,13.78
2019-04-06T21:27:15.023Z,13.80
2019-04-06T21:29:47.458Z,13.66
2019-04-06T21:32:18.039Z,13.63
2019-04-06T21:34:49.436Z,13.57
2019-04-06T21:37:20.073Z,13.51
2019-04-06T21:39:50.565Z,13.37
2019-04-06T21:42:21.956Z,13.28
2019-04-06T21:44:52.434Z,13.23
2019-04-06T21:47:24.076Z,13.17
2019-04-06T21:49:54.726Z,13.22
2019-04-06T21:52:25.177Z,13.17
2019-04-06T21:54:56.740Z,13.19
2019-04-06T21:57:27.382Z,13.20
2019-04-06T21:59:57.955Z,13.17
2019-04-06T22:02:29.573Z,13.15
2019-04-06T22:05:00.429Z,13.14
2019-04-06T22:07:30.870Z,13.04
2019-04-06T22:10:01.702Z,12.91
2019-04-06T22:12:32.176Z,12.67
2019-04-06T22:15:03.071Z,12.54
2019-04-06T22:17:34.886Z,12.46
2019-04-06T22:20:05.992Z,12.39
2019-04-06T22:22:36.859Z,12.30
2019-04-06T22:25:08.419Z,12.27
2019-04-06T22:27:39.298Z,12.12
2019-04-06T22:30:11.319Z,11.96
2019-04-06T22:32:41.975Z,11.91
2019-04-06T22:35:12.895Z,11.86
2019-04-06T22:37:43.689Z,11.83
2019-04-06T22:40:16.516Z,11.83
2019-04-06T22:42:47.022Z,11.82
2019-04-06T22:45:19.710Z,11.83
2019-04-06T22:47:50.761Z,11.91
2019-04-06T22:50:21.305Z,11.73
2019-04-06T22:52:51.745Z,11.60
2019-04-06T22:55:22.242Z,11.54
2019-04-06T22:57:53.283Z,11.46
2019-04-06T23:00:36.321Z,11.48
2019-04-06T23:03:26.442Z,11.46
2019-04-06T23:06:00.555Z,11.46
2019-04-06T23:08:31.662Z,11.43
2019-04-06T23:11:02.540Z,11.36
2019-04-06T23:13:33.398Z,11.29
2019-04-06T23:16:05.868Z,11.30
2019-04-06T23:18:38.961Z,11.29
2019-04-06T23:21:10.914Z,11.29
2019-04-06T23:23:41.875Z,11.29
2019-04-06T23:26:12.575Z,11.25
2019-04-06T23:28:43.471Z,11.22
2019-04-06T23:31:14.744Z,11.17
2019-04-06T23:33:45.856Z,11.10
2019-04-06T23:36:17.034Z,11.06
2019-04-06T23:38:47.623Z,11.05
2019-04-06T23:41:18.464Z,11.03
2019-04-06T23:43:48.968Z,11.03
2019-04-06T23:46:19.568Z,11.00
2019-04-06T23:48:50.097Z,10.92
2019-04-06T23:51:21.026Z,10.87
2019-04-06T23:53:51.456Z,10.83
2019-04-06T23:56:21.967Z,10.79
2019-04-06T23:58:52.419Z,10.75
